CheckWX is a tool to help pilots better visualize weather data.  It is not intended as a substitute for an official pre-flight weather briefing.

04:54:08 UTC

KEXX METAR
Davidson County Airport
Lexington, North Carolina, USA
Current

14 mins ago

KEXX 270440Z AUTO 00000KT 10SM CLR 22/22 A3017 RMK AO2 T02170217
Observed
Jun-27 @ 04:40 UTC
Visibility
10 SM
Flight Rules
VFR
Cloud Levels
  • Clear skies
Temperature
22°C / 72°F
Dewpoint
22°C / 72°F
Humidity
100%
Altimeter
30.17" Hg
Pressure
1021.72 hPa
Previous

34 mins ago

KEXX 270420Z AUTO 00000KT 10SM CLR 22/22 A3016 RMK AO2 T02180218
Observed
Jun-27 @ 04:20 UTC
Visibility
10 SM
Flight Rules
VFR
Cloud Levels
  • Clear skies
Temperature
22°C / 72°F
Dewpoint
22°C / 72°F
Humidity
100%
Altimeter
30.16" Hg
Pressure
1021.32 hPa
Previous

54 mins ago

KEXX 270400Z AUTO 00000KT 10SM CLR 22/22 A3016 RMK AO2 T02170217
Observed
Jun-27 @ 04:00 UTC
Visibility
10 SM
Flight Rules
VFR
Cloud Levels
  • Clear skies
Temperature
22°C / 72°F
Dewpoint
22°C / 72°F
Humidity
100%
Altimeter
30.16" Hg
Pressure
1021.32 hPa